Time;durP1;ratioP1;P1;durP2;ratioP2;P2;SDS_P1;SDS_P2;PMS_P1;PMS_P2;Temp;Humidity;BMP_temperature;BMP_pressure;BME280_temperature;BME280_humidity;BME280_pressure;Samples;Min_cycle;Max_cycle;Signal;HPM_P1;HPM_P2
2022/07/21 00:00:55;;;;;;;18.23;16.43;;;24.20;81.80;;;;;;5000165;28;20453;-49
2022/07/21 00:03:22;;;;;;;19.93;15.93;;;24.10;81.90;;;;;;4997754;28;20543;-49
2022/07/21 00:05:49;;;;;;;16.80;15.00;;;24.20;81.80;;;;;;4983590;28;20584;-48
2022/07/21 00:08:15;;;;;;;18.23;16.33;;;24.10;81.50;;;;;;4995738;28;20524;-49
2022/07/21 00:10:42;;;;;;;17.53;15.77;;;24.10;81.50;;;;;;4999993;28;20456;-49
2022/07/21 00:13:09;;;;;;;18.63;15.60;;;24.10;81.60;;;;;;4999289;28;20907;-49
2022/07/21 00:15:36;;;;;;;19.80;16.47;;;24.10;81.70;;;;;;4997448;28;20552;-49
2022/07/21 00:18:03;;;;;;;18.33;15.57;;;24.00;81.90;;;;;;4994058;28;20523;-49
2022/07/21 00:20:30;;;;;;;18.03;16.13;;;24.10;82.00;;;;;;4999154;28;20549;-48
2022/07/21 00:22:57;;;;;;;17.40;15.67;;;24.10;81.90;;;;;;5002244;28;20491;-49
2022/07/21 00:25:26;;;;;;;17.40;15.60;;;24.10;81.80;;;;;;4997820;28;20492;-49
2022/07/21 00:27:59;;;;;;;19.17;15.80;;;24.10;81.70;;;;;;4997604;28;20453;-48
2022/07/21 00:30:26;;;;;;;16.47;14.93;;;24.10;81.50;;;;;;4999599;28;20475;-48
2022/07/21 00:32:53;;;;;;;18.07;16.27;;;24.10;81.50;;;;;;4999585;28;20464;-49
2022/07/21 00:35:20;;;;;;;18.17;16.27;;;24.00;81.60;;;;;;4981650;28;20488;-49
2022/07/21 00:37:47;;;;;;;22.60;16.53;;;24.00;81.70;;;;;;4995358;28;20492;-49
2022/07/21 00:40:15;;;;;;;18.07;15.77;;;24.00;81.60;;;;;;4998109;28;20467;-49
2022/07/21 00:42:43;;;;;;;21.00;15.43;;;24.00;81.70;;;;;;4999214;28;20466;-48
2022/07/21 00:45:11;;;;;;;16.70;15.00;;;24.00;81.70;;;;;;4997816;28;20496;-48
2022/07/21 00:47:38;;;;;;;17.90;15.43;;;24.00;81.50;;;;;;4996577;28;20968;-48
2022/07/21 00:50:08;;;;;;;17.27;15.57;;;24.00;81.30;;;;;;4998625;28;20445;-48
2022/07/21 00:52:36;;;;;;;17.07;13.87;;;24.00;81.30;;;;;;4998055;28;20456;-48
2022/07/21 00:55:04;;;;;;;17.53;14.30;;;24.00;81.00;;;;;;4999758;28;20488;-48
2022/07/21 00:57:31;;;;;;;19.93;14.43;;;24.00;80.70;;;;;;4982757;28;20531;-48
2022/07/21 00:59:58;;;;;;;15.90;14.20;;;23.90;80.90;;;;;;4979108;28;20515;-49
2022/07/21 01:02:26;;;;;;;16.23;14.50;;;23.90;81.10;;;;;;4982921;28;20996;-48
2022/07/21 01:04:54;;;;;;;15.50;14.00;;;23.90;81.20;;;;;;4982158;28;20544;-48
2022/07/21 01:07:21;;;;;;;15.47;13.87;;;23.90;81.30;;;;;;4998669;28;20543;-48
2022/07/21 01:09:48;;;;;;;16.07;14.47;;;23.80;81.50;;;;;;4980392;28;20456;-48
2022/07/21 01:12:17;;;;;;;17.70;14.90;;;23.80;81.70;;;;;;4996590;28;20595;-49
2022/07/21 01:14:44;;;;;;;15.37;13.97;;;23.80;81.50;;;;;;4982450;28;20540;-48
2022/07/21 01:17:11;;;;;;;16.07;14.43;;;23.80;81.30;;;;;;4994852;28;20475;-48
2022/07/21 01:19:38;;;;;;;18.23;14.30;;;23.80;81.10;;;;;;4994746;28;20523;-48
2022/07/21 01:22:06;;;;;;;14.90;13.47;;;23.80;81.20;;;;;;4999652;28;20520;-49
2022/07/21 01:24:33;;;;;;;17.37;15.53;;;23.80;81.60;;;;;;4997147;28;20946;-49
2022/07/21 01:26:59;;;;;;;16.43;14.73;;;23.80;80.90;;;;;;4998857;28;21039;-48
2022/07/21 01:29:26;;;;;;;17.33;15.50;;;23.80;81.00;;;;;;4993099;28;20457;-49
2022/07/21 01:31:53;;;;;;;19.70;17.23;;;23.80;81.20;;;;;;4996033;28;20540;-48
2022/07/21 01:34:20;;;;;;;16.30;14.73;;;23.70;81.40;;;;;;4998643;28;20456;-49
2022/07/21 01:36:47;;;;;;;16.57;14.77;;;23.80;81.60;;;;;;4998579;28;20480;-48
2022/07/21 01:42:00;;;;;;;16.73;15.10;;;23.90;80.90;;;;;;4995908;28;20468;-48
2022/07/21 01:44:27;;;;;;;14.03;12.53;;;23.90;80.50;;;;;;4998296;28;20500;-48
2022/07/21 01:46:55;;;;;;;16.30;12.83;;;23.80;79.10;;;;;;4997843;28;20484;-48
2022/07/21 01:49:22;;;;;;;13.20;11.17;;;23.70;78.30;;;;;;4982506;28;20893;-48
2022/07/21 01:51:49;;;;;;;12.83;11.37;;;23.60;78.30;;;;;;4998722;28;20460;-48
2022/07/21 01:54:16;;;;;;;13.63;11.10;;;23.50;78.60;;;;;;5000900;28;20464;-48
2022/07/21 01:56:49;;;;;;;19.30;10.70;;;23.50;78.80;;;;;;5002135;28;20693;-48
2022/07/21 01:59:16;;;;;;;13.27;11.97;;;23.50;78.30;;;;;;5002381;28;20547;-48
2022/07/21 02:01:43;;;;;;;11.97;10.10;;;23.50;78.60;;;;;;5000494;28;20472;-48
2022/07/21 02:04:10;;;;;;;10.37;9.40;;;23.40;78.10;;;;;;4999875;28;20457;-48
2022/07/21 02:06:38;;;;;;;9.43;8.50;;;23.50;77.60;;;;;;5002080;28;20513;-48
2022/07/21 02:09:06;;;;;;;18.90;9.17;;;23.50;77.30;;;;;;4998988;28;21056;-48
2022/07/21 02:11:33;;;;;;;8.70;7.90;;;23.50;75.90;;;;;;5001121;28;21573;-47
2022/07/21 02:14:01;;;;;;;7.10;6.43;;;23.40;75.40;;;;;;5000283;28;20463;-48
2022/07/21 02:16:28;;;;;;;9.53;6.90;;;23.40;74.80;;;;;;5001185;28;20457;-48
2022/07/21 02:18:55;;;;;;;7.23;6.40;;;23.30;75.20;;;;;;5001596;28;20468;-49
2022/07/21 02:21:23;;;;;;;8.90;7.10;;;23.20;75.40;;;;;;4998992;28;20473;-48
2022/07/21 02:23:50;;;;;;;7.47;6.80;;;23.20;75.70;;;;;;4999219;28;20519;-48
2022/07/21 02:26:16;;;;;;;7.37;6.67;;;23.10;75.60;;;;;;4984002;28;20493;-48
2022/07/21 02:28:43;;;;;;;8.23;6.73;;;23.00;75.80;;;;;;4997645;28;20453;-47
2022/07/21 02:31:10;;;;;;;6.70;5.47;;;23.00;74.80;;;;;;5001966;28;20583;-48
2022/07/21 02:33:37;;;;;;;6.10;5.50;;;23.10;74.00;;;;;;5000239;28;20461;-49
2022/07/21 02:36:05;;;;;;;6.03;5.47;;;23.00;73.90;;;;;;4974972;28;20489;-44
2022/07/21 02:38:31;;;;;;;7.13;6.40;;;23.00;74.00;;;;;;4985267;28;20468;-44
2022/07/21 02:40:58;;;;;;;6.70;5.60;;;23.00;74.20;;;;;;4987532;28;20452;-44
2022/07/21 02:43:25;;;;;;;7.57;5.73;;;23.00;74.40;;;;;;4966691;28;20468;-46
2022/07/21 02:45:55;;;;;;;6.17;5.63;;;23.00;74.40;;;;;;4976868;28;20538;-50
2022/07/21 02:48:21;;;;;;;6.20;5.70;;;23.00;73.70;;;;;;4989995;28;20448;-50
2022/07/21 02:50:48;;;;;;;6.27;5.43;;;23.00;73.70;;;;;;4971011;28;20544;-49
2022/07/21 02:53:19;;;;;;;6.30;5.70;;;22.90;73.20;;;;;;4986942;28;20468;-50
2022/07/21 02:55:47;;;;;;;6.40;5.63;;;22.90;73.30;;;;;;4987154;28;20563;-50
2022/07/21 02:58:15;;;;;;;5.97;5.37;;;22.90;73.80;;;;;;4990786;28;20954;-50
2022/07/21 03:00:49;;;;;;;6.70;5.87;;;22.80;73.50;;;;;;4988560;28;20473;-50
2022/07/21 03:03:16;;;;;;;5.73;5.23;;;22.80;73.30;;;;;;4986151;28;20973;-50
2022/07/21 03:05:43;;;;;;;6.57;5.80;;;22.70;73.30;;;;;;4995243;28;20472;-50
2022/07/21 03:08:11;;;;;;;6.63;6.03;;;22.70;73.60;;;;;;4985859;28;20955;-50
2022/07/21 03:10:39;;;;;;;7.50;5.93;;;22.70;73.20;;;;;;4988038;28;20707;-50
2022/07/21 03:13:06;;;;;;;6.90;6.13;;;22.70;73.40;;;;;;4986011;28;20468;-50
2022/07/21 03:15:33;;;;;;;5.93;5.43;;;22.70;73.50;;;;;;4971993;28;20465;-50
2022/07/21 03:18:00;;;;;;;6.23;5.63;;;22.70;73.40;;;;;;4985334;28;20472;-50
2022/07/21 03:20:30;;;;;;;8.80;7.13;;;22.70;73.70;;;;;;4987359;28;20841;-50
2022/07/21 03:22:57;;;;;;;6.73;5.63;;;22.70;74.10;;;;;;4987173;28;20953;-50
2022/07/21 03:25:24;;;;;;;7.57;6.40;;;22.70;74.40;;;;;;4989077;28;20471;-50
2022/07/21 03:27:51;;;;;;;6.23;5.63;;;22.70;74.70;;;;;;4987822;28;20507;-50
2022/07/21 03:30:18;;;;;;;5.90;5.27;;;22.70;74.90;;;;;;4986697;28;20460;-50
2022/07/21 03:32:45;;;;;;;6.73;6.03;;;22.70;74.60;;;;;;4989431;28;20486;-50
2022/07/21 03:35:13;;;;;;;7.90;6.50;;;22.70;74.70;;;;;;4989089;28;20490;-50
2022/07/21 03:37:53;;;;;;;6.60;5.93;;;22.70;74.50;;;;;;4988653;28;20475;-50
2022/07/21 03:40:25;;;;;;;7.10;6.40;;;22.60;74.70;;;;;;4971167;28;20467;-50
2022/07/21 03:42:54;;;;;;;7.33;5.90;;;22.60;74.70;;;;;;4975429;28;20469;-50
2022/07/21 03:45:22;;;;;;;7.10;6.40;;;22.60;75.50;;;;;;4986463;28;20468;-50
2022/07/21 03:47:49;;;;;;;6.77;6.13;;;22.60;75.60;;;;;;4987678;28;20861;-50
2022/07/21 03:50:18;;;;;;;7.27;6.20;;;22.50;75.60;;;;;;4988155;28;20459;-50
2022/07/21 03:52:46;;;;;;;8.80;7.40;;;22.50;76.00;;;;;;4989037;28;20466;-50
2022/07/21 03:55:18;;;;;;;6.77;6.17;;;22.50;76.00;;;;;;4984999;28;20461;-50
2022/07/21 03:57:54;;;;;;;7.60;6.70;;;22.50;76.40;;;;;;4989515;28;20584;-50
2022/07/21 04:00:31;;;;;;;7.90;7.07;;;22.50;76.30;;;;;;4988804;28;20468;-50
2022/07/21 04:02:59;;;;;;;10.10;7.83;;;22.50;76.30;;;;;;4988718;28;20472;-50
2022/07/21 04:05:27;;;;;;;6.93;6.23;;;22.50;76.30;;;;;;4987764;28;20526;-50
2022/07/21 04:07:54;;;;;;;7.17;6.47;;;22.50;76.20;;;;;;4989077;28;20502;-50
2022/07/21 04:10:24;;;;;;;6.80;6.20;;;22.50;76.20;;;;;;4966142;28;20453;-50
2022/07/21 04:12:52;;;;;;;7.43;6.60;;;22.50;76.20;;;;;;4972568;28;20473;-50
2022/07/21 04:15:19;;;;;;;10.00;8.50;;;22.50;75.80;;;;;;4988068;28;20861;-50
2022/07/21 04:17:48;;;;;;;8.93;8.13;;;22.40;75.80;;;;;;4982717;28;20457;-50
2022/07/21 04:20:15;;;;;;;7.57;6.70;;;22.50;75.50;;;;;;4987225;28;20548;-50
2022/07/21 04:22:44;;;;;;;7.70;7.00;;;22.40;75.40;;;;;;4987006;28;20555;-50
2022/07/21 04:25:12;;;;;;;8.10;7.13;;;22.40;75.30;;;;;;4984454;28;21061;-50
2022/07/21 04:27:40;;;;;;;9.90;6.83;;;22.40;75.40;;;;;;4988368;28;20486;-50
2022/07/21 04:30:12;;;;;;;7.60;6.90;;;22.40;74.80;;;;;;4963879;28;20464;-50
2022/07/21 04:32:38;;;;;;;8.70;7.67;;;22.40;74.70;;;;;;4983778;28;20537;-50
2022/07/21 04:35:06;;;;;;;8.77;7.43;;;22.40;74.80;;;;;;4988795;28;20481;-50
2022/07/21 04:37:33;;;;;;;7.47;6.77;;;22.40;74.60;;;;;;4985814;28;20520;-50
2022/07/21 04:40:00;;;;;;;7.53;6.77;;;22.40;74.40;;;;;;4971153;28;20716;-50
2022/07/21 04:42:27;;;;;;;7.90;7.17;;;22.40;74.20;;;;;;4972791;28;20496;-50
2022/07/21 04:44:54;;;;;;;8.70;7.77;;;22.40;74.00;;;;;;4987966;28;21012;-50
2022/07/21 04:47:21;;;;;;;9.20;8.30;;;22.40;73.20;;;;;;4978130;28;21021;-50
2022/07/21 04:49:48;;;;;;;7.97;7.03;;;22.50;73.50;;;;;;4985601;28;20465;-50
2022/07/21 04:52:15;;;;;;;7.50;6.80;;;22.50;73.50;;;;;;4964158;28;20472;-50
2022/07/21 04:54:41;;;;;;;8.00;7.20;;;22.40;73.80;;;;;;4985707;28;20471;-50
2022/07/21 04:57:08;;;;;;;9.43;8.43;;;22.40;73.60;;;;;;4985674;28;20479;-50
2022/07/21 04:59:35;;;;;;;8.20;7.40;;;22.50;73.50;;;;;;4985544;28;20473;-50
2022/07/21 05:02:03;;;;;;;7.70;6.90;;;22.50;73.50;;;;;;4985371;28;20456;-50
2022/07/21 05:04:30;;;;;;;8.73;7.37;;;22.50;73.20;;;;;;4986239;28;20988;-50
2022/07/21 05:06:57;;;;;;;8.57;7.70;;;22.50;73.50;;;;;;4965871;28;20485;-50
2022/07/21 05:09:23;;;;;;;8.57;7.77;;;22.50;72.90;;;;;;4981327;28;20471;-50
2022/07/21 05:11:50;;;;;;;8.40;7.60;;;22.50;73.10;;;;;;4981041;28;20464;-50
2022/07/21 05:14:17;;;;;;;8.60;7.23;;;22.50;73.40;;;;;;4984384;28;20471;-50
2022/07/21 05:16:44;;;;;;;8.97;8.17;;;22.40;73.60;;;;;;4966148;28;20949;-50
2022/07/21 05:19:11;;;;;;;8.00;7.20;;;22.40;73.80;;;;;;4984810;28;20491;-50
2022/07/21 05:21:38;;;;;;;8.50;7.80;;;22.40;73.80;;;;;;4962787;28;20473;-50
2022/07/21 05:24:05;;;;;;;7.30;6.60;;;22.50;73.60;;;;;;4983842;28;21176;-50
2022/07/21 05:26:32;;;;;;;7.93;7.17;;;22.50;73.60;;;;;;4971782;28;20963;-50
2022/07/21 05:28:59;;;;;;;8.03;7.23;;;22.50;74.30;;;;;;4991858;28;20457;-50
2022/07/21 05:31:26;;;;;;;8.67;7.90;;;22.50;74.00;;;;;;4973887;28;20543;-50
2022/07/21 05:33:53;;;;;;;9.67;7.60;;;22.60;73.80;;;;;;4989801;28;20980;-50
2022/07/21 05:36:20;;;;;;;7.90;7.20;;;22.60;73.90;;;;;;4990576;28;20476;-50
2022/07/21 05:38:47;;;;;;;8.70;7.73;;;22.60;73.60;;;;;;4988674;28;20467;-50
2022/07/21 05:41:14;;;;;;;9.03;7.50;;;22.60;74.20;;;;;;4970128;28;20461;-50
2022/07/21 05:43:40;;;;;;;8.87;7.40;;;22.60;74.00;;;;;;4967378;28;20453;-50
2022/07/21 05:46:07;;;;;;;9.87;8.13;;;22.70;73.50;;;;;;4990530;28;20460;-50
2022/07/21 05:48:34;;;;;;;9.87;7.97;;;22.70;73.30;;;;;;4977805;28;20926;-50
2022/07/21 05:51:01;;;;;;;8.40;7.60;;;22.70;72.80;;;;;;4991895;28;20470;-49
2022/07/21 05:53:28;;;;;;;8.23;7.43;;;22.70;72.80;;;;;;4987168;28;20454;-50
2022/07/21 05:55:56;;;;;;;7.40;6.70;;;22.70;72.40;;;;;;4991413;28;20479;-50
2022/07/21 05:58:24;;;;;;;10.60;7.80;;;22.70;72.60;;;;;;4989718;28;20471;-44
2022/07/21 06:01:12;;;;;;;7.40;6.70;;;22.80;72.60;;;;;;4989705;28;20471;-45
2022/07/21 06:03:44;;;;;;;7.90;7.20;;;22.90;72.90;;;;;;4990472;28;20452;-46
2022/07/21 06:06:13;;;;;;;7.60;6.90;;;22.90;72.20;;;;;;4989029;28;20469;-46
2022/07/21 06:08:41;;;;;;;8.27;7.47;;;23.00;72.20;;;;;;4990043;28;26240;-52
2022/07/21 06:11:09;;;;;;;8.37;7.50;;;23.00;72.50;;;;;;4991952;28;20463;-45
2022/07/21 06:13:36;;;;;;;8.80;8.00;;;23.00;71.90;;;;;;4991472;28;20467;-45
2022/07/21 06:16:03;;;;;;;7.80;7.10;;;23.00;72.20;;;;;;4990716;28;20844;-45
2022/07/21 06:18:30;;;;;;;8.40;7.50;;;23.00;71.90;;;;;;4991174;28;20465;-45
2022/07/21 06:20:57;;;;;;;9.10;8.20;;;23.00;72.40;;;;;;4991223;28;20449;-46
2022/07/21 06:23:24;;;;;;;7.70;6.90;;;23.00;71.40;;;;;;4989080;28;20504;-46
2022/07/21 06:25:52;;;;;;;9.50;7.87;;;23.10;70.80;;;;;;4997178;28;20473;-49
2022/07/21 06:28:20;;;;;;;9.93;8.10;;;23.10;71.10;;;;;;4991299;28;20491;-45
2022/07/21 06:30:47;;;;;;;10.37;7.87;;;23.00;71.40;;;;;;4994169;28;20480;-47
2022/07/21 06:33:15;;;;;;;8.43;7.63;;;23.00;71.50;;;;;;4989092;28;20490;-46
2022/07/21 06:35:41;;;;;;;9.80;8.80;;;23.00;71.50;;;;;;4991464;28;20477;-51
2022/07/21 06:38:08;;;;;;;8.20;7.30;;;23.00;71.70;;;;;;4987745;28;20469;-51
2022/07/21 06:40:40;;;;;;;8.03;7.20;;;23.00;71.20;;;;;;4989404;28;20507;-51
2022/07/21 06:43:09;;;;;;;8.93;6.93;;;23.10;71.40;;;;;;4990369;28;20469;-51
2022/07/21 06:45:55;;;;;;;8.03;7.33;;;23.10;71.20;;;;;;4989221;28;20495;-51
2022/07/21 06:48:23;;;;;;;7.90;7.10;;;23.10;71.40;;;;;;4970739;28;20480;-51
2022/07/21 06:50:50;;;;;;;11.73;8.93;;;23.10;71.70;;;;;;4989336;28;20544;-51
2022/07/21 06:53:17;;;;;;;8.00;7.20;;;23.10;71.50;;;;;;4990251;28;20569;-51
2022/07/21 06:55:44;;;;;;;7.90;7.10;;;23.20;71.00;;;;;;4990169;28;20441;-51
2022/07/21 06:58:16;;;;;;;8.30;6.77;;;23.30;69.80;;;;;;4990613;28;20467;-51
2022/07/21 07:00:45;;;;;;;7.47;6.77;;;23.40;69.30;;;;;;4990499;28;20467;-51
2022/07/21 07:03:14;;;;;;;7.27;6.57;;;23.50;69.40;;;;;;4973665;28;20464;-51
2022/07/21 07:05:42;;;;;;;7.87;7.17;;;23.50;68.70;;;;;;4990512;28;20457;-51
2022/07/21 07:08:09;;;;;;;7.27;6.57;;;23.60;69.50;;;;;;4972423;28;20490;-51
2022/07/21 07:10:46;;;;;;;8.47;7.53;;;23.60;69.50;;;;;;4990517;28;20488;-51
2022/07/21 07:13:15;;;;;;;9.23;6.97;;;23.60;69.10;;;;;;4974771;28;20547;-51
2022/07/21 07:16:01;;;;;;;9.73;7.67;;;23.70;68.60;;;;;;4988726;28;20460;-51
2022/07/21 07:18:28;;;;;;;9.30;6.83;;;23.80;68.10;;;;;;4991496;28;20543;-50
2022/07/21 07:20:55;;;;;;;7.93;6.77;;;23.80;68.30;;;;;;4987964;28;20559;-51
2022/07/21 07:23:22;;;;;;;7.07;6.37;;;23.90;68.20;;;;;;4972620;28;20495;-53
2022/07/21 07:25:50;;;;;;;9.27;7.00;;;23.90;68.20;;;;;;4989553;28;20548;-51
2022/07/21 07:28:16;;;;;;;7.27;6.47;;;23.90;67.60;;;;;;4987109;28;20492;-51
2022/07/21 07:30:43;;;;;;;7.47;6.70;;;23.80;67.70;;;;;;4967378;28;20869;-51
2022/07/21 07:33:10;;;;;;;7.73;6.97;;;23.80;67.40;;;;;;4985475;28;20580;-51
2022/07/21 07:35:37;;;;;;;9.40;6.67;;;23.80;67.60;;;;;;4969512;28;20480;-51
2022/07/21 07:38:03;;;;;;;6.80;6.20;;;23.70;67.70;;;;;;4992041;28;20483;-51
2022/07/21 07:40:30;;;;;;;5.80;5.23;;;23.70;67.80;;;;;;4973244;28;20958;-51
2022/07/21 07:42:58;;;;;;;6.83;6.23;;;23.70;67.80;;;;;;4990854;28;20523;-51
2022/07/21 07:45:37;;;;;;;7.37;6.60;;;23.70;68.10;;;;;;4987772;28;20447;-51
2022/07/21 07:48:04;;;;;;;6.60;6.00;;;23.70;68.70;;;;;;4989258;28;20525;-51
2022/07/21 07:50:31;;;;;;;7.77;6.93;;;23.80;67.80;;;;;;4989870;28;20483;-50
2022/07/21 07:52:58;;;;;;;6.93;6.33;;;23.80;68.20;;;;;;4970243;28;20525;-51
2022/07/21 07:55:25;;;;;;;7.00;6.40;;;23.90;68.20;;;;;;4988754;28;20549;-51
2022/07/21 07:57:52;;;;;;;8.03;7.10;;;23.90;67.60;;;;;;4987304;28;20512;-51
2022/07/21 08:00:21;;;;;;;8.10;7.30;;;24.00;68.30;;;;;;4967781;28;20987;-51
2022/07/21 08:03:07;;;;;;;8.00;7.20;;;24.10;66.80;;;;;;4972815;28;20469;-51
2022/07/21 08:05:34;;;;;;;5.73;5.30;;;24.20;66.70;;;;;;4988924;28;20457;-51
2022/07/21 08:08:01;;;;;;;7.17;6.47;;;24.30;67.60;;;;;;4987178;28;20487;-51
2022/07/21 08:10:29;;;;;;;9.70;7.37;;;24.50;67.30;;;;;;4986977;28;20995;-51
2022/07/21 08:13:14;;;;;;;7.47;6.70;;;24.70;67.00;;;;;;4972838;28;20448;-51
2022/07/21 08:15:42;;;;;;;7.10;6.50;;;24.90;64.90;;;;;;4986233;28;20449;-51
2022/07/21 08:18:09;;;;;;;7.87;6.50;;;25.00;64.00;;;;;;4984570;28;20468;-51
2022/07/21 08:20:37;;;;;;;7.57;6.37;;;25.00;63.90;;;;;;4984460;28;20460;-51
2022/07/21 08:23:05;;;;;;;6.70;6.10;;;25.00;64.60;;;;;;4985664;28;20555;-50
2022/07/21 08:25:32;;;;;;;7.20;6.50;;;24.90;64.90;;;;;;4983780;28;20708;-51
2022/07/21 08:27:59;;;;;;;7.07;6.47;;;25.00;64.50;;;;;;4986833;28;20488;-51
2022/07/21 08:30:26;;;;;;;7.10;6.40;;;25.10;64.50;;;;;;4981491;28;20465;-51
2022/07/21 08:33:01;;;;;;;10.70;6.90;;;25.10;65.30;;;;;;4969252;28;20476;-52
2022/07/21 08:35:29;;;;;;;7.23;6.50;;;25.20;65.80;;;;;;4983808;28;20487;-52
2022/07/21 08:38:01;;;;;;;7.00;6.30;;;25.30;65.50;;;;;;4986434;28;21329;-51
2022/07/21 08:40:29;;;;;;;6.40;5.83;;;25.60;63.90;;;;;;4983481;28;20467;-50
2022/07/21 08:42:57;;;;;;;6.03;5.40;;;25.70;63.10;;;;;;4986209;28;20473;-52
2022/07/21 08:45:24;;;;;;;7.33;5.97;;;25.90;61.70;;;;;;4983498;28;20948;-52
2022/07/21 08:47:53;;;;;;;6.00;5.50;;;26.00;61.30;;;;;;4988146;28;20476;-52
2022/07/21 08:50:22;;;;;;;6.33;4.80;;;25.90;60.50;;;;;;4953478;28;21025;-52
2022/07/21 08:52:49;;;;;;;6.50;4.80;;;25.90;59.60;;;;;;4974027;28;20464;-52
2022/07/21 08:55:27;;;;;;;6.20;5.60;;;25.90;59.10;;;;;;4980584;28;20464;-51
2022/07/21 08:57:54;;;;;;;5.67;5.17;;;25.80;59.60;;;;;;4982762;28;20464;-51
2022/07/21 09:00:21;;;;;;;8.50;7.13;;;25.70;60.30;;;;;;4987346;28;20464;-52
2022/07/21 09:02:48;;;;;;;8.10;5.20;;;25.60;61.50;;;;;;4991574;28;21056;-51
2022/07/21 09:05:15;;;;;;;5.57;5.17;;;25.60;62.20;;;;;;4988046;28;20462;-51
2022/07/21 09:07:49;;;;;;;6.50;5.30;;;25.70;62.00;;;;;;4987562;28;20476;-51
2022/07/21 09:10:20;;;;;;;8.37;5.13;;;25.90;60.80;;;;;;4985804;28;20456;-51
2022/07/21 09:12:50;;;;;;;5.20;4.70;;;26.00;59.60;;;;;;4990414;28;20467;-51
2022/07/21 09:15:19;;;;;;;6.60;4.50;;;26.10;58.50;;;;;;4990497;28;20468;-51
2022/07/21 09:18:02;;;;;;;7.93;4.70;;;26.20;59.20;;;;;;4989269;28;20551;-52
2022/07/21 09:20:46;;;;;;;5.20;4.80;;;26.30;58.60;;;;;;4964468;28;20464;-51
2022/07/21 09:23:15;;;;;;;5.40;4.90;;;26.60;57.50;;;;;;4973493;28;20534;-50
2022/07/21 09:25:50;;;;;;;4.57;4.27;;;26.80;57.40;;;;;;4988407;28;20500;-51
2022/07/21 09:28:20;;;;;;;4.67;4.33;;;27.10;54.80;;;;;;4985562;28;20503;-51
2022/07/21 09:31:11;;;;;;;4.30;3.90;;;27.30;55.60;;;;;;4988266;28;20467;-51
2022/07/21 09:33:44;;;;;;;5.20;4.60;;;27.60;54.90;;;;;;4983145;28;20449;-51
2022/07/21 09:36:16;;;;;;;5.10;4.40;;;27.80;53.70;;;;;;4989896;28;21060;-51
2022/07/21 09:38:49;;;;;;;4.20;3.90;;;27.80;52.50;;;;;;4990662;28;20488;-51
2022/07/21 09:41:21;;;;;;;4.77;3.87;;;27.90;52.30;;;;;;4988191;28;20520;-51
2022/07/21 09:43:54;;;;;;;4.47;4.07;;;28.00;51.90;;;;;;4986917;28;20297;-51
2022/07/21 09:46:23;;;;;;;3.77;3.37;;;28.10;50.90;;;;;;4969532;28;21012;-51
2022/07/21 09:48:53;;;;;;;3.93;3.47;;;28.20;50.40;;;;;;4990317;28;20493;-51
2022/07/21 09:51:43;;;;;;;4.20;3.90;;;28.30;50.10;;;;;;4982382;28;21068;-52
2022/07/21 09:54:12;;;;;;;4.63;4.30;;;28.40;50.60;;;;;;4986636;28;20268;-51
2022/07/21 09:56:41;;;;;;;4.33;4.00;;;28.60;50.30;;;;;;4973129;28;20210;-49
2022/07/21 09:59:10;;;;;;;4.77;3.60;;;28.80;50.70;;;;;;4970148;28;20296;-50
2022/07/21 10:01:38;;;;;;;4.13;3.70;;;29.10;50.30;;;;;;4987472;28;20223;-49
2022/07/21 10:04:06;;;;;;;4.33;4.00;;;29.30;49.20;;;;;;4985363;28;20279;-50
2022/07/21 10:06:37;;;;;;;3.50;3.23;;;29.30;49.70;;;;;;4976076;28;20292;-49
2022/07/21 10:09:06;;;;;;;3.80;3.50;;;29.40;48.10;;;;;;4966273;28;20323;-49
2022/07/21 10:11:39;;;;;;;5.32;3.70;;;29.50;48.50;;;;;;4987938;28;20646;-49
2022/07/21 10:14:12;;;;;;;3.92;3.63;;;29.70;48.10;;;;;;4989685;28;20209;-49
2022/07/21 10:16:39;;;;;;;3.63;3.33;;;29.80;47.40;;;;;;4990913;28;20216;-49
2022/07/21 10:19:41;;;;;;;4.53;4.17;;;29.70;46.80;;;;;;4988809;28;20213;-50
2022/07/21 10:22:23;;;;;;;4.27;3.97;;;29.50;47.50;;;;;;4973873;28;20648;-50
2022/07/21 10:24:51;;;;;;;4.03;3.50;;;29.30;47.80;;;;;;4967177;28;20591;-50
2022/07/21 10:27:18;;;;;;;3.93;3.63;;;29.10;48.50;;;;;;4989814;28;20304;-49
2022/07/21 10:29:48;;;;;;;4.10;3.20;;;29.10;48.20;;;;;;4987462;28;20236;-50
2022/07/21 10:32:16;;;;;;;4.30;3.47;;;29.10;48.40;;;;;;4989998;28;20213;-50
2022/07/21 10:34:44;;;;;;;3.40;3.20;;;28.90;47.70;;;;;;4974241;28;20275;-49
2022/07/21 10:37:31;;;;;;;3.80;3.50;;;28.60;48.20;;;;;;4989815;28;20232;-50
2022/07/21 10:39:58;;;;;;;3.33;3.03;;;28.50;48.80;;;;;;4988441;28;20213;-50
2022/07/21 10:42:25;;;;;;;4.87;3.67;;;28.20;49.80;;;;;;4973340;28;20208;-50
2022/07/21 10:44:51;;;;;;;3.77;3.47;;;28.10;50.20;;;;;;4989320;28;20221;-50
2022/07/21 10:47:25;;;;;;;4.03;3.63;;;27.90;50.10;;;;;;4989986;28;20213;-50
2022/07/21 10:49:54;;;;;;;3.70;3.27;;;27.80;50.60;;;;;;4988001;28;20496;-50
2022/07/21 10:52:38;;;;;;;3.87;3.00;;;27.70;50.40;;;;;;4988977;28;20547;-50
2022/07/21 10:55:17;;;;;;;4.20;3.20;;;27.70;51.00;;;;;;4965526;28;20592;-51
2022/07/21 10:57:45;;;;;;;3.40;3.00;;;27.60;51.20;;;;;;4986613;28;20778;-50
2022/07/21 11:00:21;;;;;;;3.70;3.40;;;27.60;50.50;;;;;;4990410;28;20955;-50
2022/07/21 11:02:53;;;;;;;3.80;3.50;;;27.60;51.30;;;;;;4985879;28;20459;-51
2022/07/21 11:05:21;;;;;;;3.90;3.53;;;27.40;50.10;;;;;;4986259;28;20969;-50
2022/07/21 11:08:17;;;;;;;3.40;3.10;;;27.30;50.70;;;;;;4986407;28;20457;-50
2022/07/21 11:10:52;;;;;;;4.10;3.70;;;27.10;51.60;;;;;;4943010;28;20464;-50
2022/07/21 11:13:25;;;;;;;3.77;3.30;;;27.00;52.00;;;;;;4988300;28;20551;-50
2022/07/21 11:15:59;;;;;;;4.00;3.40;;;27.00;52.00;;;;;;4988828;28;20472;-50
2022/07/21 11:18:32;;;;;;;6.03;4.43;;;27.00;52.10;;;;;;4988708;28;20464;-52
2022/07/21 11:21:07;;;;;;;7.80;4.30;;;27.00;52.40;;;;;;4985369;28;21211;-51
2022/07/21 11:23:35;;;;;;;5.83;3.50;;;27.10;52.40;;;;;;4987558;28;20471;-50
2022/07/21 11:26:03;;;;;;;4.97;3.67;;;27.10;52.10;;;;;;4983668;28;20467;-50
2022/07/21 11:28:29;;;;;;;4.23;3.63;;;27.10;51.90;;;;;;4967684;28;20524;-50
2022/07/21 11:31:13;;;;;;;4.17;3.87;;;27.10;51.90;;;;;;4986726;28;20499;-50
2022/07/21 11:33:42;;;;;;;4.53;4.13;;;27.10;51.60;;;;;;4969570;28;20551;-51
2022/07/21 11:36:11;;;;;;;5.80;4.23;;;27.00;51.60;;;;;;4989262;28;20480;-50
2022/07/21 11:39:00;;;;;;;4.63;4.17;;;27.00;51.70;;;;;;4985857;28;20534;-50
2022/07/21 11:41:28;;;;;;;5.00;4.47;;;26.90;50.80;;;;;;4987781;28;20465;-50
2022/07/21 11:43:54;;;;;;;4.00;3.60;;;26.90;50.60;;;;;;4984114;28;21060;-51
2022/07/21 11:46:22;;;;;;;5.43;4.67;;;26.90;50.00;;;;;;4972533;28;20526;-50
2022/07/21 11:49:03;;;;;;;4.63;4.23;;;26.90;49.60;;;;;;4988834;28;20488;-50
2022/07/21 11:51:30;;;;;;;5.83;5.30;;;27.00;50.30;;;;;;4988357;28;20470;-50
2022/07/21 11:53:57;;;;;;;6.40;5.80;;;27.00;50.10;;;;;;4980797;28;20475;-50
2022/07/21 11:56:24;;;;;;;5.60;5.10;;;27.10;49.60;;;;;;4985995;28;20460;-50
2022/07/21 11:59:09;;;;;;;5.10;4.63;;;27.20;49.70;;;;;;4989315;28;20497;-50
2022/07/21 12:01:55;;;;;;;5.87;5.00;;;27.30;49.90;;;;;;4980466;28;20205;-50
2022/07/21 12:04:33;;;;;;;6.20;5.60;;;27.40;48.70;;;;;;4987790;28;20460;-51
2022/07/21 12:07:01;;;;;;;5.70;5.20;;;27.40;48.90;;;;;;4974372;28;20472;-51
2022/07/21 12:09:28;;;;;;;5.33;4.93;;;27.40;49.40;;;;;;4971074;28;20540;-50
2022/07/21 12:11:55;;;;;;;5.87;5.30;;;27.50;49.10;;;;;;4988502;28;20465;-51
2022/07/21 12:14:46;;;;;;;5.60;4.80;;;27.50;48.90;;;;;;4984891;28;20556;-50
2022/07/21 12:17:14;;;;;;;5.67;5.17;;;27.60;47.80;;;;;;4988500;28;20457;-51
2022/07/21 12:19:41;;;;;;;5.00;4.60;;;27.60;47.10;;;;;;4989436;28;21152;-50
2022/07/21 12:22:08;;;;;;;5.23;4.63;;;27.60;47.10;;;;;;4973531;28;20486;-51
2022/07/21 12:24:54;;;;;;;6.33;5.40;;;27.70;47.10;;;;;;4988349;28;20552;-51
2022/07/21 12:27:21;;;;;;;4.60;4.20;;;27.80;47.40;;;;;;4984399;28;20962;-50
2022/07/21 12:29:48;;;;;;;5.17;4.67;;;27.80;47.20;;;;;;4983376;28;20492;-50
2022/07/21 12:32:48;;;;;;;5.90;5.03;;;27.90;47.50;;;;;;4969656;28;20547;-50
2022/07/21 12:35:21;;;;;;;6.17;5.53;;;27.90;48.00;;;;;;4984564;28;20316;-50
2022/07/21 12:38:03;;;;;;;6.13;5.10;;;27.90;48.10;;;;;;4987041;28;20213;-50
2022/07/21 12:40:32;;;;;;;5.50;5.00;;;27.80;48.30;;;;;;4986448;28;20212;-49
2022/07/21 12:43:06;;;;;;;7.10;6.17;;;27.80;48.30;;;;;;4989359;28;20240;-50
2022/07/21 12:45:44;;;;;;;6.07;5.53;;;27.80;48.50;;;;;;4983726;28;21000;-50
2022/07/21 12:48:13;;;;;;;6.50;5.80;;;27.80;48.20;;;;;;4986868;28;20448;-50
2022/07/21 12:50:40;;;;;;;7.57;5.37;;;27.80;48.10;;;;;;4979280;28;20472;-50
2022/07/21 12:53:11;;;;;;;5.50;5.00;;;27.70;48.20;;;;;;4987060;28;20464;-50
2022/07/21 12:55:39;;;;;;;6.17;5.53;;;27.70;48.70;;;;;;4969780;28;20684;-50
2022/07/21 12:58:06;;;;;;;6.63;5.87;;;27.60;49.30;;;;;;4984366;28;20467;-50